sensor_id;sensor_type;location;lat;lon;timestamp;P1;durP1;ratioP1;P2;durP2;ratioP2
80334;SDS011;69653;52.674;13.574;2024-03-17T00:01:01;7.77;;;1.30;;
80334;SDS011;69653;52.674;13.574;2024-03-17T00:03:27;12.88;;;1.92;;
80334;SDS011;69653;52.674;13.574;2024-03-17T00:05:58;10.07;;;1.67;;
80334;SDS011;69653;52.674;13.574;2024-03-17T00:08:24;8.18;;;1.52;;
80334;SDS011;69653;52.674;13.574;2024-03-17T00:10:50;14.93;;;1.98;;
80334;SDS011;69653;52.674;13.574;2024-03-17T00:13:15;7.20;;;2.15;;
80334;SDS011;69653;52.674;13.574;2024-03-17T00:15:41;7.80;;;2.03;;
80334;SDS011;69653;52.674;13.574;2024-03-17T00:18:07;7.73;;;1.70;;
80334;SDS011;69653;52.674;13.574;2024-03-17T00:20:32;8.60;;;1.40;;
80334;SDS011;69653;52.674;13.574;2024-03-17T00:22:58;9.77;;;1.50;;
80334;SDS011;69653;52.674;13.574;2024-03-17T00:25:24;8.70;;;1.80;;
80334;SDS011;69653;52.674;13.574;2024-03-17T00:27:49;4.43;;;1.40;;
80334;SDS011;69653;52.674;13.574;2024-03-17T00:30:15;7.78;;;1.60;;
80334;SDS011;69653;52.674;13.574;2024-03-17T00:32:41;7.20;;;1.48;;
80334;SDS011;69653;52.674;13.574;2024-03-17T00:35:06;8.82;;;1.50;;
80334;SDS011;69653;52.674;13.574;2024-03-17T00:37:32;11.18;;;1.85;;
80334;SDS011;69653;52.674;13.574;2024-03-17T00:39:58;8.57;;;1.90;;
80334;SDS011;69653;52.674;13.574;2024-03-17T00:42:23;10.30;;;1.40;;
80334;SDS011;69653;52.674;13.574;2024-03-17T00:44:48;4.97;;;1.07;;
80334;SDS011;69653;52.674;13.574;2024-03-17T00:47:13;10.10;;;1.87;;
80334;SDS011;69653;52.674;13.574;2024-03-17T00:49:38;9.27;;;1.50;;
80334;SDS011;69653;52.674;13.574;2024-03-17T00:52:04;8.47;;;1.30;;
80334;SDS011;69653;52.674;13.574;2024-03-17T00:54:29;9.47;;;1.80;;
80334;SDS011;69653;52.674;13.574;2024-03-17T00:56:54;9.37;;;1.20;;
80334;SDS011;69653;52.674;13.574;2024-03-17T00:59:19;13.97;;;3.33;;
80334;SDS011;69653;52.674;13.574;2024-03-17T01:01:45;11.23;;;2.23;;
80334;SDS011;69653;52.674;13.574;2024-03-17T01:04:10;14.23;;;3.57;;
80334;SDS011;69653;52.674;13.574;2024-03-17T01:06:35;10.53;;;2.37;;
80334;SDS011;69653;52.674;13.574;2024-03-17T01:09:01;15.80;;;2.63;;
80334;SDS011;69653;52.674;13.574;2024-03-17T01:11:26;10.47;;;1.77;;
80334;SDS011;69653;52.674;13.574;2024-03-17T01:13:52;8.52;;;1.98;;
80334;SDS011;69653;52.674;13.574;2024-03-17T01:16:17;7.43;;;1.60;;
80334;SDS011;69653;52.674;13.574;2024-03-17T01:18:42;9.93;;;1.80;;
80334;SDS011;69653;52.674;13.574;2024-03-17T01:21:10;10.00;;;1.63;;
80334;SDS011;69653;52.674;13.574;2024-03-17T01:23:35;7.50;;;1.43;;
80334;SDS011;69653;52.674;13.574;2024-03-17T01:26:00;9.80;;;2.27;;
80334;SDS011;69653;52.674;13.574;2024-03-17T01:28:25;8.03;;;1.83;;
80334;SDS011;69653;52.674;13.574;2024-03-17T01:30:52;9.50;;;1.55;;
80334;SDS011;69653;52.674;13.574;2024-03-17T01:33:17;12.87;;;2.67;;
80334;SDS011;69653;52.674;13.574;2024-03-17T01:35:42;8.60;;;1.83;;
80334;SDS011;69653;52.674;13.574;2024-03-17T01:38:08;5.90;;;1.13;;
80334;SDS011;69653;52.674;13.574;2024-03-17T01:40:35;5.65;;;1.65;;
80334;SDS011;69653;52.674;13.574;2024-03-17T01:43:00;7.77;;;1.40;;
80334;SDS011;69653;52.674;13.574;2024-03-17T01:45:26;7.90;;;1.40;;
80334;SDS011;69653;52.674;13.574;2024-03-17T01:47:52;9.95;;;1.17;;
80334;SDS011;69653;52.674;13.574;2024-03-17T01:50:17;9.98;;;1.67;;
80334;SDS011;69653;52.674;13.574;2024-03-17T01:52:46;11.27;;;2.13;;
80334;SDS011;69653;52.674;13.574;2024-03-17T01:55:11;9.05;;;1.67;;
80334;SDS011;69653;52.674;13.574;2024-03-17T01:57:36;8.60;;;1.83;;
80334;SDS011;69653;52.674;13.574;2024-03-17T02:00:02;7.00;;;1.37;;
80334;SDS011;69653;52.674;13.574;2024-03-17T02:02:27;6.77;;;1.17;;
80334;SDS011;69653;52.674;13.574;2024-03-17T02:04:52;4.10;;;0.90;;
80334;SDS011;69653;52.674;13.574;2024-03-17T02:07:17;8.40;;;1.27;;
80334;SDS011;69653;52.674;13.574;2024-03-17T02:09:43;6.30;;;1.10;;
80334;SDS011;69653;52.674;13.574;2024-03-17T02:12:08;10.50;;;1.80;;
80334;SDS011;69653;52.674;13.574;2024-03-17T02:14:34;5.47;;;1.30;;
80334;SDS011;69653;52.674;13.574;2024-03-17T02:16:59;8.60;;;1.37;;
80334;SDS011;69653;52.674;13.574;2024-03-17T02:19:24;9.27;;;1.50;;
80334;SDS011;69653;52.674;13.574;2024-03-17T02:21:50;5.38;;;1.27;;
80334;SDS011;69653;52.674;13.574;2024-03-17T02:24:15;11.07;;;1.73;;
80334;SDS011;69653;52.674;13.574;2024-03-17T02:26:41;9.83;;;1.33;;
80334;SDS011;69653;52.674;13.574;2024-03-17T02:29:06;5.73;;;1.33;;
80334;SDS011;69653;52.674;13.574;2024-03-17T02:31:31;8.23;;;1.30;;
80334;SDS011;69653;52.674;13.574;2024-03-17T02:33:56;9.57;;;1.53;;
80334;SDS011;69653;52.674;13.574;2024-03-17T02:36:21;7.27;;;1.47;;
80334;SDS011;69653;52.674;13.574;2024-03-17T02:38:46;6.67;;;2.03;;
80334;SDS011;69653;52.674;13.574;2024-03-17T02:41:30;5.65;;;1.60;;
80334;SDS011;69653;52.674;13.574;2024-03-17T02:43:56;4.87;;;1.20;;
80334;SDS011;69653;52.674;13.574;2024-03-17T02:46:21;7.00;;;1.10;;
80334;SDS011;69653;52.674;13.574;2024-03-17T02:48:48;7.93;;;1.40;;
80334;SDS011;69653;52.674;13.574;2024-03-17T02:51:14;9.95;;;1.10;;
80334;SDS011;69653;52.674;13.574;2024-03-17T02:53:43;7.55;;;1.10;;
80334;SDS011;69653;52.674;13.574;2024-03-17T02:56:09;15.95;;;1.73;;
80334;SDS011;69653;52.674;13.574;2024-03-17T02:58:36;8.32;;;1.85;;
80334;SDS011;69653;52.674;13.574;2024-03-17T03:01:01;5.85;;;1.17;;
80334;SDS011;69653;52.674;13.574;2024-03-17T03:03:27;7.15;;;1.40;;
80334;SDS011;69653;52.674;13.574;2024-03-17T03:05:52;6.07;;;1.63;;
80334;SDS011;69653;52.674;13.574;2024-03-17T03:08:17;6.47;;;1.40;;
80334;SDS011;69653;52.674;13.574;2024-03-17T03:10:44;7.77;;;1.77;;
80334;SDS011;69653;52.674;13.574;2024-03-17T03:13:09;10.10;;;1.48;;
80334;SDS011;69653;52.674;13.574;2024-03-17T03:15:34;10.93;;;1.33;;
80334;SDS011;69653;52.674;13.574;2024-03-17T03:17:59;5.93;;;0.93;;
80334;SDS011;69653;52.674;13.574;2024-03-17T03:20:24;6.07;;;0.90;;
80334;SDS011;69653;52.674;13.574;2024-03-17T03:22:50;7.25;;;1.42;;
80334;SDS011;69653;52.674;13.574;2024-03-17T03:25:16;6.82;;;1.52;;
80334;SDS011;69653;52.674;13.574;2024-03-17T03:27:41;8.80;;;1.90;;
80334;SDS011;69653;52.674;13.574;2024-03-17T03:30:06;10.30;;;2.27;;
80334;SDS011;69653;52.674;13.574;2024-03-17T03:32:33;5.60;;;1.42;;
80334;SDS011;69653;52.674;13.574;2024-03-17T03:34:59;10.23;;;1.70;;
80334;SDS011;69653;52.674;13.574;2024-03-17T03:37:24;9.82;;;1.58;;
80334;SDS011;69653;52.674;13.574;2024-03-17T03:39:51;9.95;;;1.80;;
80334;SDS011;69653;52.674;13.574;2024-03-17T03:42:16;9.68;;;1.33;;
80334;SDS011;69653;52.674;13.574;2024-03-17T03:44:42;11.00;;;1.88;;
80334;SDS011;69653;52.674;13.574;2024-03-17T03:47:08;7.35;;;1.45;;
80334;SDS011;69653;52.674;13.574;2024-03-17T03:49:33;6.47;;;1.40;;
80334;SDS011;69653;52.674;13.574;2024-03-17T03:51:59;14.48;;;1.80;;
80334;SDS011;69653;52.674;13.574;2024-03-17T03:54:24;13.83;;;1.83;;
80334;SDS011;69653;52.674;13.574;2024-03-17T03:56:49;6.27;;;1.60;;
80334;SDS011;69653;52.674;13.574;2024-03-17T03:59:14;9.30;;;1.87;;
80334;SDS011;69653;52.674;13.574;2024-03-17T04:01:40;10.53;;;1.03;;
80334;SDS011;69653;52.674;13.574;2024-03-17T04:04:05;8.30;;;1.37;;
80334;SDS011;69653;52.674;13.574;2024-03-17T04:06:30;5.70;;;1.20;;
80334;SDS011;69653;52.674;13.574;2024-03-17T04:08:56;9.77;;;1.65;;
80334;SDS011;69653;52.674;13.574;2024-03-17T04:11:21;5.70;;;1.20;;
80334;SDS011;69653;52.674;13.574;2024-03-17T04:13:46;7.67;;;1.40;;
80334;SDS011;69653;52.674;13.574;2024-03-17T04:16:13;7.10;;;1.50;;
80334;SDS011;69653;52.674;13.574;2024-03-17T04:18:40;5.37;;;1.30;;
80334;SDS011;69653;52.674;13.574;2024-03-17T04:21:05;11.00;;;1.85;;
80334;SDS011;69653;52.674;13.574;2024-03-17T04:23:33;9.57;;;1.55;;
80334;SDS011;69653;52.674;13.574;2024-03-17T04:25:59;7.70;;;1.30;;
80334;SDS011;69653;52.674;13.574;2024-03-17T04:28:24;5.18;;;1.02;;
80334;SDS011;69653;52.674;13.574;2024-03-17T04:30:50;6.67;;;1.10;;
80334;SDS011;69653;52.674;13.574;2024-03-17T04:33:15;6.43;;;1.30;;
80334;SDS011;69653;52.674;13.574;2024-03-17T04:35:41;7.88;;;1.38;;
80334;SDS011;69653;52.674;13.574;2024-03-17T04:38:07;8.37;;;1.40;;
80334;SDS011;69653;52.674;13.574;2024-03-17T04:40:32;11.23;;;1.60;;
80334;SDS011;69653;52.674;13.574;2024-03-17T04:42:58;8.23;;;1.30;;
80334;SDS011;69653;52.674;13.574;2024-03-17T04:45:23;8.90;;;1.47;;
80334;SDS011;69653;52.674;13.574;2024-03-17T04:47:48;8.67;;;1.80;;
80334;SDS011;69653;52.674;13.574;2024-03-17T04:50:14;8.85;;;1.27;;
80334;SDS011;69653;52.674;13.574;2024-03-17T04:52:39;11.63;;;1.47;;
80334;SDS011;69653;52.674;13.574;2024-03-17T04:55:04;6.97;;;1.23;;
80334;SDS011;69653;52.674;13.574;2024-03-17T04:57:29;8.90;;;1.20;;
80334;SDS011;69653;52.674;13.574;2024-03-17T04:59:55;4.27;;;1.03;;
80334;SDS011;69653;52.674;13.574;2024-03-17T05:02:20;4.60;;;1.10;;
80334;SDS011;69653;52.674;13.574;2024-03-17T05:04:46;8.30;;;1.20;;
80334;SDS011;69653;52.674;13.574;2024-03-17T05:07:11;8.07;;;1.60;;
80334;SDS011;69653;52.674;13.574;2024-03-17T05:09:37;9.50;;;1.80;;
80334;SDS011;69653;52.674;13.574;2024-03-17T05:12:02;6.67;;;1.53;;
80334;SDS011;69653;52.674;13.574;2024-03-17T05:14:27;9.73;;;1.57;;
80334;SDS011;69653;52.674;13.574;2024-03-17T05:16:52;3.77;;;1.00;;
80334;SDS011;69653;52.674;13.574;2024-03-17T05:19:17;8.03;;;1.60;;
80334;SDS011;69653;52.674;13.574;2024-03-17T05:21:46;10.00;;;1.53;;
80334;SDS011;69653;52.674;13.574;2024-03-17T05:24:11;12.05;;;1.80;;
80334;SDS011;69653;52.674;13.574;2024-03-17T05:26:37;6.38;;;2.28;;
80334;SDS011;69653;52.674;13.574;2024-03-17T05:29:02;6.23;;;1.43;;
80334;SDS011;69653;52.674;13.574;2024-03-17T05:31:28;13.40;;;1.60;;
80334;SDS011;69653;52.674;13.574;2024-03-17T05:33:54;6.35;;;1.52;;
80334;SDS011;69653;52.674;13.574;2024-03-17T05:36:20;11.00;;;1.60;;
80334;SDS011;69653;52.674;13.574;2024-03-17T05:38:45;7.40;;;1.77;;
80334;SDS011;69653;52.674;13.574;2024-03-17T05:41:10;7.63;;;1.80;;
80334;SDS011;69653;52.674;13.574;2024-03-17T05:43:36;11.80;;;2.10;;
80334;SDS011;69653;52.674;13.574;2024-03-17T05:46:01;9.02;;;1.42;;
80334;SDS011;69653;52.674;13.574;2024-03-17T05:48:27;4.50;;;1.25;;
80334;SDS011;69653;52.674;13.574;2024-03-17T05:50:53;8.27;;;1.70;;
80334;SDS011;69653;52.674;13.574;2024-03-17T05:53:18;5.37;;;1.23;;
80334;SDS011;69653;52.674;13.574;2024-03-17T05:55:44;6.35;;;1.50;;
80334;SDS011;69653;52.674;13.574;2024-03-17T05:58:09;11.77;;;1.80;;
80334;SDS011;69653;52.674;13.574;2024-03-17T06:00:35;12.55;;;3.05;;
80334;SDS011;69653;52.674;13.574;2024-03-17T06:03:01;7.82;;;1.73;;
80334;SDS011;69653;52.674;13.574;2024-03-17T06:05:26;3.92;;;1.25;;
80334;SDS011;69653;52.674;13.574;2024-03-17T06:07:51;8.00;;;1.43;;
80334;SDS011;69653;52.674;13.574;2024-03-17T06:10:17;15.30;;;2.03;;
80334;SDS011;69653;52.674;13.574;2024-03-17T06:12:42;12.97;;;2.10;;
80334;SDS011;69653;52.674;13.574;2024-03-17T06:15:07;11.53;;;1.63;;
80334;SDS011;69653;52.674;13.574;2024-03-17T06:17:32;9.17;;;1.53;;
80334;SDS011;69653;52.674;13.574;2024-03-17T06:19:58;5.90;;;1.33;;
80334;SDS011;69653;52.674;13.574;2024-03-17T06:22:23;4.63;;;1.27;;
80334;SDS011;69653;52.674;13.574;2024-03-17T06:24:49;9.48;;;1.48;;
80334;SDS011;69653;52.674;13.574;2024-03-17T06:27:14;8.98;;;1.88;;
80334;SDS011;69653;52.674;13.574;2024-03-17T06:29:39;9.40;;;1.60;;
80334;SDS011;69653;52.674;13.574;2024-03-17T06:32:05;8.67;;;1.60;;
80334;SDS011;69653;52.674;13.574;2024-03-17T06:34:30;5.63;;;1.30;;
80334;SDS011;69653;52.674;13.574;2024-03-17T06:36:55;9.20;;;1.93;;
80334;SDS011;69653;52.674;13.574;2024-03-17T06:39:20;10.90;;;2.00;;
80334;SDS011;69653;52.674;13.574;2024-03-17T06:41:46;7.10;;;1.67;;
80334;SDS011;69653;52.674;13.574;2024-03-17T06:44:11;7.07;;;1.77;;
80334;SDS011;69653;52.674;13.574;2024-03-17T06:46:36;6.63;;;1.80;;
80334;SDS011;69653;52.674;13.574;2024-03-17T06:49:02;8.40;;;1.53;;
80334;SDS011;69653;52.674;13.574;2024-03-17T06:51:27;7.93;;;1.40;;
80334;SDS011;69653;52.674;13.574;2024-03-17T06:53:52;6.23;;;1.20;;
80334;SDS011;69653;52.674;13.574;2024-03-17T06:56:17;5.23;;;1.33;;
80334;SDS011;69653;52.674;13.574;2024-03-17T06:58:43;8.43;;;1.38;;
80334;SDS011;69653;52.674;13.574;2024-03-17T07:01:08;10.37;;;1.77;;
80334;SDS011;69653;52.674;13.574;2024-03-17T07:03:34;9.00;;;1.33;;
80334;SDS011;69653;52.674;13.574;2024-03-17T07:06:00;9.67;;;1.57;;
80334;SDS011;69653;52.674;13.574;2024-03-17T07:08:28;10.45;;;1.70;;
80334;SDS011;69653;52.674;13.574;2024-03-17T07:13:24;7.13;;;1.30;;
80334;SDS011;69653;52.674;13.574;2024-03-17T07:15:50;9.30;;;1.53;;
80334;SDS011;69653;52.674;13.574;2024-03-17T07:18:15;5.67;;;1.10;;
80334;SDS011;69653;52.674;13.574;2024-03-17T07:20:41;6.55;;;1.65;;
80334;SDS011;69653;52.674;13.574;2024-03-17T07:23:06;7.53;;;1.17;;
80334;SDS011;69653;52.674;13.574;2024-03-17T07:25:31;4.82;;;1.00;;
80334;SDS011;69653;52.674;13.574;2024-03-17T07:27:57;5.07;;;1.30;;
80334;SDS011;69653;52.674;13.574;2024-03-17T07:30:22;8.50;;;1.97;;
80334;SDS011;69653;52.674;13.574;2024-03-17T07:32:47;7.53;;;1.70;;
80334;SDS011;69653;52.674;13.574;2024-03-17T07:35:12;6.03;;;1.17;;
80334;SDS011;69653;52.674;13.574;2024-03-17T07:37:39;8.93;;;1.58;;
80334;SDS011;69653;52.674;13.574;2024-03-17T07:40:04;4.07;;;1.45;;
80334;SDS011;69653;52.674;13.574;2024-03-17T07:42:31;5.35;;;1.10;;
80334;SDS011;69653;52.674;13.574;2024-03-17T07:44:57;7.70;;;1.13;;
80334;SDS011;69653;52.674;13.574;2024-03-17T07:47:22;5.47;;;1.40;;
80334;SDS011;69653;52.674;13.574;2024-03-17T07:49:47;7.93;;;1.17;;
80334;SDS011;69653;52.674;13.574;2024-03-17T07:52:12;10.17;;;1.20;;
80334;SDS011;69653;52.674;13.574;2024-03-17T07:54:37;4.70;;;1.30;;
80334;SDS011;69653;52.674;13.574;2024-03-17T07:57:03;9.33;;;1.03;;
80334;SDS011;69653;52.674;13.574;2024-03-17T07:59:28;8.38;;;1.50;;
80334;SDS011;69653;52.674;13.574;2024-03-17T08:01:54;9.38;;;1.90;;
80334;SDS011;69653;52.674;13.574;2024-03-17T08:04:20;6.65;;;1.42;;
80334;SDS011;69653;52.674;13.574;2024-03-17T08:06:46;10.13;;;1.33;;
80334;SDS011;69653;52.674;13.574;2024-03-17T08:09:11;6.53;;;1.07;;
80334;SDS011;69653;52.674;13.574;2024-03-17T08:11:37;7.00;;;1.65;;
80334;SDS011;69653;52.674;13.574;2024-03-17T08:14:03;7.25;;;1.20;;
80334;SDS011;69653;52.674;13.574;2024-03-17T08:16:29;7.45;;;1.80;;
80334;SDS011;69653;52.674;13.574;2024-03-17T08:18:55;7.50;;;1.27;;
80334;SDS011;69653;52.674;13.574;2024-03-17T08:21:20;5.07;;;1.13;;
80334;SDS011;69653;52.674;13.574;2024-03-17T08:23:45;6.77;;;1.10;;
80334;SDS011;69653;52.674;13.574;2024-03-17T08:26:12;7.90;;;1.50;;
80334;SDS011;69653;52.674;13.574;2024-03-17T08:28:37;10.00;;;1.60;;
80334;SDS011;69653;52.674;13.574;2024-03-17T08:31:03;8.03;;;1.80;;
80334;SDS011;69653;52.674;13.574;2024-03-17T08:33:28;6.97;;;1.27;;
80334;SDS011;69653;52.674;13.574;2024-03-17T08:38:19;6.43;;;1.17;;
80334;SDS011;69653;52.674;13.574;2024-03-17T08:40:45;7.45;;;2.00;;
80334;SDS011;69653;52.674;13.574;2024-03-17T08:43:10;6.32;;;1.23;;
80334;SDS011;69653;52.674;13.574;2024-03-17T08:45:35;6.53;;;1.33;;
80334;SDS011;69653;52.674;13.574;2024-03-17T08:48:01;5.20;;;1.83;;
80334;SDS011;69653;52.674;13.574;2024-03-17T08:50:26;8.73;;;1.30;;
80334;SDS011;69653;52.674;13.574;2024-03-17T08:52:51;6.47;;;1.63;;
80334;SDS011;69653;52.674;13.574;2024-03-17T08:55:17;7.72;;;1.45;;
80334;SDS011;69653;52.674;13.574;2024-03-17T08:57:42;8.70;;;1.60;;
80334;SDS011;69653;52.674;13.574;2024-03-17T09:00:07;6.67;;;1.13;;
80334;SDS011;69653;52.674;13.574;2024-03-17T09:02:34;6.80;;;2.20;;
80334;SDS011;69653;52.674;13.574;2024-03-17T09:04:59;7.43;;;1.50;;
80334;SDS011;69653;52.674;13.574;2024-03-17T09:07:24;3.87;;;1.47;;
80334;SDS011;69653;52.674;13.574;2024-03-17T09:09:49;5.43;;;1.17;;
80334;SDS011;69653;52.674;13.574;2024-03-17T09:12:15;6.63;;;1.57;;
80334;SDS011;69653;52.674;13.574;2024-03-17T09:14:40;5.37;;;1.10;;
80334;SDS011;69653;52.674;13.574;2024-03-17T09:17:06;6.90;;;2.15;;
80334;SDS011;69653;52.674;13.574;2024-03-17T09:19:31;6.85;;;1.05;;
80334;SDS011;69653;52.674;13.574;2024-03-17T09:21:58;5.32;;;1.40;;
80334;SDS011;69653;52.674;13.574;2024-03-17T09:24:24;7.97;;;1.40;;
80334;SDS011;69653;52.674;13.574;2024-03-17T09:26:49;6.13;;;1.60;;
80334;SDS011;69653;52.674;13.574;2024-03-17T09:29:14;5.00;;;1.30;;
80334;SDS011;69653;52.674;13.574;2024-03-17T09:31:42;6.50;;;1.42;;
80334;SDS011;69653;52.674;13.574;2024-03-17T09:34:08;6.47;;;1.37;;
80334;SDS011;69653;52.674;13.574;2024-03-17T09:36:34;5.72;;;1.27;;
80334;SDS011;69653;52.674;13.574;2024-03-17T09:38:59;6.00;;;1.10;;
80334;SDS011;69653;52.674;13.574;2024-03-17T09:41:25;7.20;;;1.60;;
80334;SDS011;69653;52.674;13.574;2024-03-17T09:43:55;4.57;;;1.15;;
80334;SDS011;69653;52.674;13.574;2024-03-17T09:46:20;5.97;;;1.50;;
80334;SDS011;69653;52.674;13.574;2024-03-17T09:48:47;5.32;;;1.58;;
80334;SDS011;69653;52.674;13.574;2024-03-17T09:51:18;7.43;;;1.37;;
80334;SDS011;69653;52.674;13.574;2024-03-17T09:53:43;7.97;;;1.60;;
80334;SDS011;69653;52.674;13.574;2024-03-17T09:56:12;6.67;;;1.43;;
80334;SDS011;69653;52.674;13.574;2024-03-17T09:58:41;6.22;;;1.70;;
80334;SDS011;69653;52.674;13.574;2024-03-17T10:01:06;4.93;;;0.88;;
80334;SDS011;69653;52.674;13.574;2024-03-17T10:03:51;6.43;;;1.40;;
80334;SDS011;69653;52.674;13.574;2024-03-17T10:06:17;6.15;;;1.42;;
80334;SDS011;69653;52.674;13.574;2024-03-17T10:11:11;6.70;;;1.65;;
80334;SDS011;69653;52.674;13.574;2024-03-17T10:13:37;5.22;;;0.95;;
80334;SDS011;69653;52.674;13.574;2024-03-17T10:16:02;8.93;;;1.50;;
80334;SDS011;69653;52.674;13.574;2024-03-17T10:18:28;6.60;;;1.30;;
80334;SDS011;69653;52.674;13.574;2024-03-17T10:20:53;6.20;;;1.30;;
80334;SDS011;69653;52.674;13.574;2024-03-17T10:23:22;6.38;;;1.90;;
80334;SDS011;69653;52.674;13.574;2024-03-17T10:25:47;5.32;;;1.40;;
80334;SDS011;69653;52.674;13.574;2024-03-17T10:28:14;7.07;;;1.55;;
80334;SDS011;69653;52.674;13.574;2024-03-17T10:30:40;6.45;;;1.33;;
80334;SDS011;69653;52.674;13.574;2024-03-17T10:33:06;6.50;;;1.47;;
80334;SDS011;69653;52.674;13.574;2024-03-17T10:35:36;5.38;;;1.02;;
80334;SDS011;69653;52.674;13.574;2024-03-17T10:38:06;6.00;;;1.30;;
80334;SDS011;69653;52.674;13.574;2024-03-17T10:40:32;5.47;;;1.10;;
80334;SDS011;69653;52.674;13.574;2024-03-17T10:43:03;5.18;;;1.15;;
80334;SDS011;69653;52.674;13.574;2024-03-17T10:45:29;4.60;;;1.30;;
80334;SDS011;69653;52.674;13.574;2024-03-17T10:48:01;3.60;;;0.95;;
80334;SDS011;69653;52.674;13.574;2024-03-17T10:50:26;5.13;;;1.00;;
80334;SDS011;69653;52.674;13.574;2024-03-17T10:52:55;5.93;;;1.30;;
80334;SDS011;69653;52.674;13.574;2024-03-17T10:55:24;6.55;;;1.00;;
80334;SDS011;69653;52.674;13.574;2024-03-17T10:57:50;3.83;;;0.93;;
80334;SDS011;69653;52.674;13.574;2024-03-17T11:00:16;4.28;;;1.15;;
80334;SDS011;69653;52.674;13.574;2024-03-17T11:02:47;3.95;;;0.80;;
80334;SDS011;69653;52.674;13.574;2024-03-17T11:05:17;2.63;;;0.85;;
80334;SDS011;69653;52.674;13.574;2024-03-17T11:07:43;4.72;;;1.00;;
80334;SDS011;69653;52.674;13.574;2024-03-17T11:10:33;3.65;;;1.23;;
80334;SDS011;69653;52.674;13.574;2024-03-17T11:12:57;4.60;;;0.90;;
80334;SDS011;69653;52.674;13.574;2024-03-17T11:17:50;3.53;;;0.80;;
80334;SDS011;69653;52.674;13.574;2024-03-17T11:20:26;5.55;;;1.80;;
80334;SDS011;69653;52.674;13.574;2024-03-17T11:27:56;3.20;;;0.90;;
80334;SDS011;69653;52.674;13.574;2024-03-17T11:33:36;1.85;;;0.60;;
80334;SDS011;69653;52.674;13.574;2024-03-17T11:35:50;2.45;;;0.77;;
80334;SDS011;69653;52.674;13.574;2024-03-17T11:51:46;3.50;;;0.93;;
80334;SDS011;69653;52.674;13.574;2024-03-17T11:54:15;3.95;;;0.82;;
80334;SDS011;69653;52.674;13.574;2024-03-17T11:56:43;2.67;;;0.68;;
80334;SDS011;69653;52.674;13.574;2024-03-17T11:59:09;3.83;;;1.02;;
80334;SDS011;69653;52.674;13.574;2024-03-17T12:01:35;4.20;;;0.80;;
80334;SDS011;69653;52.674;13.574;2024-03-17T12:04:01;6.65;;;2.08;;
80334;SDS011;69653;52.674;13.574;2024-03-17T12:06:30;3.97;;;1.42;;
80334;SDS011;69653;52.674;13.574;2024-03-17T12:09:07;3.00;;;0.90;;
80334;SDS011;69653;52.674;13.574;2024-03-17T12:13:57;3.55;;;0.98;;
80334;SDS011;69653;52.674;13.574;2024-03-17T12:16:22;3.60;;;0.80;;
80334;SDS011;69653;52.674;13.574;2024-03-17T12:18:47;5.20;;;0.87;;
80334;SDS011;69653;52.674;13.574;2024-03-17T12:21:13;2.93;;;0.83;;
80334;SDS011;69653;52.674;13.574;2024-03-17T12:23:39;2.10;;;0.70;;
80334;SDS011;69653;52.674;13.574;2024-03-17T12:26:04;4.35;;;0.90;;
80334;SDS011;69653;52.674;13.574;2024-03-17T12:28:30;2.97;;;0.50;;
80334;SDS011;69653;52.674;13.574;2024-03-17T12:30:55;3.57;;;0.77;;
80334;SDS011;69653;52.674;13.574;2024-03-17T12:33:24;4.95;;;1.35;;
80334;SDS011;69653;52.674;13.574;2024-03-17T12:35:49;3.30;;;0.90;;
80334;SDS011;69653;52.674;13.574;2024-03-17T12:38:21;3.88;;;0.75;;
80334;SDS011;69653;52.674;13.574;2024-03-17T12:40:46;2.00;;;0.70;;
80334;SDS011;69653;52.674;13.574;2024-03-17T12:43:12;3.20;;;1.20;;
80334;SDS011;69653;52.674;13.574;2024-03-17T12:45:37;3.60;;;1.15;;
80334;SDS011;69653;52.674;13.574;2024-03-17T12:48:03;8.10;;;3.57;;
80334;SDS011;69653;52.674;13.574;2024-03-17T12:50:28;4.73;;;2.07;;
80334;SDS011;69653;52.674;13.574;2024-03-17T12:52:54;3.97;;;1.50;;
80334;SDS011;69653;52.674;13.574;2024-03-17T12:55:20;5.47;;;1.48;;
80334;SDS011;69653;52.674;13.574;2024-03-17T13:01:00;3.03;;;0.90;;
80334;SDS011;69653;52.674;13.574;2024-03-17T13:03:27;3.20;;;1.00;;
80334;SDS011;69653;52.674;13.574;2024-03-17T13:05:52;2.40;;;0.70;;
80334;SDS011;69653;52.674;13.574;2024-03-17T13:08:18;3.97;;;0.98;;
80334;SDS011;69653;52.674;13.574;2024-03-17T13:10:43;3.93;;;1.03;;
80334;SDS011;69653;52.674;13.574;2024-03-17T13:13:09;2.33;;;0.75;;
80334;SDS011;69653;52.674;13.574;2024-03-17T13:15:35;4.65;;;0.70;;
80334;SDS011;69653;52.674;13.574;2024-03-17T13:18:03;2.40;;;1.00;;
80334;SDS011;69653;52.674;13.574;2024-03-17T13:20:29;4.30;;;1.00;;
80334;SDS011;69653;52.674;13.574;2024-03-17T13:22:55;3.85;;;0.80;;
80334;SDS011;69653;52.674;13.574;2024-03-17T13:25:23;2.22;;;0.50;;
80334;SDS011;69653;52.674;13.574;2024-03-17T13:27:50;3.28;;;0.80;;
80334;SDS011;69653;52.674;13.574;2024-03-17T13:30:15;2.90;;;0.60;;
80334;SDS011;69653;52.674;13.574;2024-03-17T13:32:41;3.58;;;0.80;;
80334;SDS011;69653;52.674;13.574;2024-03-17T13:35:16;2.45;;;0.80;;
80334;SDS011;69653;52.674;13.574;2024-03-17T13:37:45;4.82;;;0.73;;
80334;SDS011;69653;52.674;13.574;2024-03-17T13:40:11;3.22;;;0.82;;
80334;SDS011;69653;52.674;13.574;2024-03-17T13:42:37;1.65;;;0.60;;
80334;SDS011;69653;52.674;13.574;2024-03-17T13:45:03;2.95;;;0.90;;
80334;SDS011;69653;52.674;13.574;2024-03-17T13:47:28;3.33;;;1.27;;
80334;SDS011;69653;52.674;13.574;2024-03-17T13:49:53;3.33;;;0.80;;
80334;SDS011;69653;52.674;13.574;2024-03-17T13:52:18;1.73;;;0.70;;
80334;SDS011;69653;52.674;13.574;2024-03-17T13:54:44;3.40;;;0.60;;
80334;SDS011;69653;52.674;13.574;2024-03-17T13:57:09;3.07;;;0.80;;
80334;SDS011;69653;52.674;13.574;2024-03-17T13:59:35;3.60;;;1.10;;
80334;SDS011;69653;52.674;13.574;2024-03-17T14:02:01;3.05;;;0.70;;
80334;SDS011;69653;52.674;13.574;2024-03-17T14:04:27;2.90;;;0.80;;
80334;SDS011;69653;52.674;13.574;2024-03-17T14:06:52;2.10;;;0.70;;
80334;SDS011;69653;52.674;13.574;2024-03-17T14:09:18;3.65;;;0.75;;
80334;SDS011;69653;52.674;13.574;2024-03-17T14:11:43;3.50;;;1.10;;
80334;SDS011;69653;52.674;13.574;2024-03-17T14:14:08;3.40;;;0.80;;
80334;SDS011;69653;52.674;13.574;2024-03-17T14:16:34;2.80;;;0.73;;
80334;SDS011;69653;52.674;13.574;2024-03-17T14:19:00;2.90;;;0.80;;
80334;SDS011;69653;52.674;13.574;2024-03-17T14:21:28;1.73;;;0.70;;
80334;SDS011;69653;52.674;13.574;2024-03-17T14:23:54;2.42;;;0.80;;
80334;SDS011;69653;52.674;13.574;2024-03-17T14:26:20;3.50;;;0.80;;
80334;SDS011;69653;52.674;13.574;2024-03-17T14:28:46;6.50;;;1.02;;
80334;SDS011;69653;52.674;13.574;2024-03-17T14:31:11;2.50;;;0.70;;
80334;SDS011;69653;52.674;13.574;2024-03-17T14:33:36;2.97;;;0.60;;
80334;SDS011;69653;52.674;13.574;2024-03-17T14:36:02;2.37;;;1.00;;
80334;SDS011;69653;52.674;13.574;2024-03-17T14:38:27;2.20;;;0.60;;
80334;SDS011;69653;52.674;13.574;2024-03-17T14:40:52;4.13;;;1.00;;
80334;SDS011;69653;52.674;13.574;2024-03-17T14:43:18;3.08;;;0.88;;
80334;SDS011;69653;52.674;13.574;2024-03-17T14:45:43;2.83;;;0.80;;
80334;SDS011;69653;52.674;13.574;2024-03-17T14:48:09;2.17;;;0.60;;
80334;SDS011;69653;52.674;13.574;2024-03-17T14:50:34;1.23;;;0.40;;
80334;SDS011;69653;52.674;13.574;2024-03-17T14:52:59;1.98;;;0.55;;
80334;SDS011;69653;52.674;13.574;2024-03-17T14:55:25;2.80;;;0.70;;
80334;SDS011;69653;52.674;13.574;2024-03-17T14:57:50;2.27;;;0.90;;
80334;SDS011;69653;52.674;13.574;2024-03-17T15:00:15;3.43;;;0.90;;
80334;SDS011;69653;52.674;13.574;2024-03-17T15:02:45;3.05;;;0.80;;